Saint Michael, North Dakota
Current Conditions -  °F | °C
As of 5:15 AM on Wednesday 26 Nov 2014 (Local Time) from KDVL Reporting Station
Overcast Overcast  
Wind Chill: -20°   Ceiling: 11000
Heat Index:   Visibility: 10mi
Dew Point: -13°   Wind: 15mph
Humidity: 55%   Direction: 10°N
Pressure: 30.27"   Gusts: NA
Location:  47.98°N, 98.87°W
Report Text: KDVL 261115Z AUTO 01013KT 10SM OVC110 M18/M25 A3027 RMK AO1
Loading
Personal Weather Stations






























Interactive Weather Map New forecast layout! Learn more

10-Day Weather Forecast

Advertisements
Track Severe Weather on mobile